Aérodrome :
LOGIN :

S'inscrire | Disclaimer

   EN    FR    IT 

 










Légende :    VFR   VFR Marginal   IFR   IFR Intensif   IFR Très Intensif
Visi : 
Plafond : 
>= 8 km
>= 3000ft
5 à 8 km
1000 à 3000 ft
1500m à 5 km
500 à 1000 ft
800 à 1500m
200 à 500 ft
< 800m
< 200 ft
Symboles :   Orages  Brouillard  Fortes neiges  Fortes précipitations  Vent > 20 kt
SIGMETs :   Divers  Orages  Givrage  Turbulence  Onde Orograph.  Cendres Volcan.







- Altitude de l'aérodrome : 86 ft


LERT - Rota Navy

DERNIER METAR :
  • 162000Z 25002KT CAVOK 19/15 Q1018 NOSIG

METARs EXPIRÉS :
  • 161900Z 27009KT CAVOK 20/16 Q1018 NOSIG
  • 161800Z 26011KT CAVOK 21/16 Q1017 NOSIG

TAF TAF LERT
Valide du 16 à 18h jusqu'au 17 à 03h UTC


161700Z 1618/1703 27008KT CAVOK
Pas de NOTAMs connus pour ce terrain.
1 SIGMET publié pour la FIR Madrid (LECM) :
 
Turbulence forte
LECM SIGMET 1 VALID 161800/162200 LEVA
LECM MADRID UIR SEV TURB FCST WI N3712 W00721 - N3709 W00701 - N3734 W00633 - N3621 W00257 - N3717 W00146 - N3938 W00703 - N3936 W00723 - N3712 W00721 FL290/350 MOV NE NC=



MET'MAP, la Météo Aéronautique d'un coup d'oeil ! - Copyright ORBIFLY Décembre 2007 - Disclaimer

ORBIFLY MET'MAP TEAM :

Programmation & Développement : Alexandra Zaïnal
Conception & Développement : Baudouin d'Aumeries
Co-Programmation & Développement : Marc-Olivier Méhu
Soutien technique & logistique : Manuel Goepfert

Contact : metmap@orbifly.com




SOURCES & CREDITS :

   NOAA